Time;durP1;ratioP1;P1;durP2;ratioP2;P2;SDS_P1;SDS_P2;PMS_P1;PMS_P2;Temp;Humidity;BMP_temperature;BMP_pressure;BME280_temperature;BME280_humidity;BME280_pressure;Samples;Min_cycle;Max_cycle;Signal;HPM_P1;HPM_P2
2021/05/24 00:02:01;;;;;;;2.35;1.00;;;;;;;;;;5063790;28;20017;-62
2021/05/24 00:04:27;;;;;;;1.63;0.75;;;;;;;;;;5072319;28;20022;-62
2021/05/24 00:06:52;;;;;;;2.63;1.00;;;;;;;;;;5070960;28;20330;-62
2021/05/24 00:09:17;;;;;;;2.83;1.60;;;;;;;;;;5073328;28;20020;-62
2021/05/24 00:11:42;;;;;;;2.33;1.38;;;;;;;;;;5074228;28;20029;-62
2021/05/24 00:14:11;;;;;;;2.55;1.17;;;;;;;;;;5074032;28;20024;-62
2021/05/24 00:16:36;;;;;;;3.60;1.35;;;;;;;;;;5071844;28;20035;-62
2021/05/24 00:19:02;;;;;;;3.13;0.88;;;;;;;;;;5073804;28;20378;-62
2021/05/24 00:21:27;;;;;;;3.65;0.80;;;;;;;;;;5068108;28;20517;-62
2021/05/24 00:23:52;;;;;;;1.83;0.73;;;;;;;;;;5057518;28;20013;-62
2021/05/24 00:26:17;;;;;;;1.70;0.70;;;;;;;;;;5073748;28;20025;-62
2021/05/24 00:28:43;;;;;;;1.65;0.70;;;;;;;;;;5069405;28;20052;-61
2021/05/24 00:31:08;;;;;;;0.82;0.70;;;;;;;;;;5078301;28;20051;-61
2021/05/24 00:33:33;;;;;;;1.65;0.60;;;;;;;;;;5072602;28;20062;-61
2021/05/24 00:35:59;;;;;;;1.08;0.40;;;;;;;;;;5065055;28;20452;-61
2021/05/24 00:38:24;;;;;;;2.40;0.65;;;;;;;;;;5070630;28;20040;-61
2021/05/24 00:40:49;;;;;;;1.30;0.50;;;;;;;;;;5072527;28;20096;-61
2021/05/24 00:43:14;;;;;;;2.03;0.52;;;;;;;;;;5073534;28;20024;-61
2021/05/24 00:45:40;;;;;;;1.23;0.45;;;;;;;;;;5073299;28;20032;-61
2021/05/24 00:48:06;;;;;;;1.77;0.60;;;;;;;;;;5070632;28;20021;-61
2021/05/24 00:50:31;;;;;;;1.48;0.50;;;;;;;;;;5070504;28;20489;-61
2021/05/24 00:52:56;;;;;;;1.55;0.50;;;;;;;;;;5055524;28;20025;-61
2021/05/24 00:55:21;;;;;;;2.13;0.50;;;;;;;;;;5071786;28;20376;-61
2021/05/24 00:57:47;;;;;;;1.80;0.70;;;;;;;;;;5070755;28;20043;-61
2021/05/24 01:00:14;;;;;;;2.90;0.60;;;;;;;;;;5056363;28;20017;-61
2021/05/24 01:02:39;;;;;;;0.88;0.38;;;;;;;;;;5065845;28;20021;-62
2021/05/24 01:05:05;;;;;;;2.92;0.57;;;;;;;;;;5090938;28;20031;-61
2021/05/24 01:07:30;;;;;;;1.65;0.50;;;;;;;;;;5069819;28;20415;-61
2021/05/24 01:09:55;;;;;;;1.15;0.50;;;;;;;;;;5070820;28;20025;-61
2021/05/24 01:12:21;;;;;;;0.80;0.40;;;;;;;;;;5072942;28;20032;-60
2021/05/24 01:14:46;;;;;;;2.50;0.40;;;;;;;;;;5072599;28;20379;-61
2021/05/24 01:17:11;;;;;;;1.30;0.50;;;;;;;;;;5070669;28;20100;-62
2021/05/24 01:19:43;;;;;;;0.98;0.52;;;;;;;;;;5066549;28;20352;-62
2021/05/24 01:22:14;;;;;;;1.13;0.63;;;;;;;;;;5068645;28;20103;-62
2021/05/24 01:24:39;;;;;;;2.20;0.60;;;;;;;;;;5071707;28;20396;-62
2021/05/24 01:27:05;;;;;;;2.00;0.43;;;;;;;;;;5068355;28;20021;-62
2021/05/24 01:29:32;;;;;;;1.98;0.45;;;;;;;;;;5072859;28;20028;-62
2021/05/24 01:31:57;;;;;;;2.20;0.65;;;;;;;;;;5071859;28;20375;-62
2021/05/24 01:34:22;;;;;;;2.05;0.43;;;;;;;;;;5078774;28;20021;-62
2021/05/24 01:36:47;;;;;;;1.25;0.40;;;;;;;;;;5062369;28;20094;-61
2021/05/24 01:39:13;;;;;;;0.68;0.35;;;;;;;;;;5073447;28;20422;-62
2021/05/24 01:41:38;;;;;;;1.98;0.50;;;;;;;;;;5061604;28;20035;-62
2021/05/24 01:44:03;;;;;;;3.30;0.88;;;;;;;;;;5072859;28;20031;-60
2021/05/24 01:46:29;;;;;;;1.02;0.32;;;;;;;;;;5064608;28;20021;-62
2021/05/24 01:48:54;;;;;;;0.50;0.30;;;;;;;;;;5071591;28;20035;-60
2021/05/24 01:51:19;;;;;;;2.25;0.32;;;;;;;;;;5071956;28;20025;-60
2021/05/24 01:53:44;;;;;;;0.90;0.55;;;;;;;;;;5072752;28;20344;-60
2021/05/24 01:56:10;;;;;;;1.17;0.30;;;;;;;;;;5071123;28;20020;-61
2021/05/24 01:58:35;;;;;;;2.35;0.30;;;;;;;;;;5069591;28;20023;-60
2021/05/24 02:01:07;;;;;;;1.13;0.40;;;;;;;;;;5069972;28;20028;-60
2021/05/24 02:03:32;;;;;;;0.70;0.40;;;;;;;;;;5063866;28;20032;-60
2021/05/24 02:05:59;;;;;;;2.28;0.40;;;;;;;;;;5072672;28;20031;-60
2021/05/24 02:08:24;;;;;;;1.38;0.30;;;;;;;;;;5069529;28;20029;-61
2021/05/24 02:10:50;;;;;;;0.50;0.30;;;;;;;;;;5069808;28;20016;-60
2021/05/24 02:13:15;;;;;;;0.50;0.30;;;;;;;;;;5070413;28;20020;-61
2021/05/24 02:15:41;;;;;;;0.47;0.30;;;;;;;;;;5071173;28;20021;-60
2021/05/24 02:18:07;;;;;;;0.70;0.30;;;;;;;;;;5069375;28;20029;-60
2021/05/24 02:20:33;;;;;;;1.65;0.50;;;;;;;;;;5068062;28;20016;-60
2021/05/24 02:22:59;;;;;;;1.02;0.38;;;;;;;;;;5069768;28;20020;-60
2021/05/24 02:25:25;;;;;;;2.10;0.30;;;;;;;;;;5067555;28;20038;-60
2021/05/24 02:27:50;;;;;;;0.85;0.30;;;;;;;;;;5062758;28;20025;-61
2021/05/24 02:30:16;;;;;;;1.83;0.40;;;;;;;;;;5064612;28;20023;-61
2021/05/24 02:32:42;;;;;;;1.25;0.30;;;;;;;;;;5067926;28;20426;-62
2021/05/24 02:35:09;;;;;;;1.42;0.40;;;;;;;;;;5066650;28;20029;-61
2021/05/24 02:37:34;;;;;;;1.02;0.30;;;;;;;;;;5062366;28;20045;-61
2021/05/24 02:39:59;;;;;;;1.15;0.28;;;;;;;;;;5067220;28;20517;-61
2021/05/24 02:42:25;;;;;;;1.25;0.40;;;;;;;;;;5060629;28;20017;-61
2021/05/24 02:44:50;;;;;;;1.55;0.47;;;;;;;;;;5066677;28;20117;-61
2021/05/24 02:47:15;;;;;;;1.17;0.47;;;;;;;;;;5065813;28;20120;-61
2021/05/24 02:49:44;;;;;;;1.85;0.50;;;;;;;;;;5065938;28;20388;-61
2021/05/24 02:52:10;;;;;;;0.82;0.40;;;;;;;;;;5060868;28;20150;-61
2021/05/24 02:54:35;;;;;;;1.10;0.35;;;;;;;;;;5101313;28;20111;-61
2021/05/24 02:57:00;;;;;;;2.58;0.40;;;;;;;;;;5066240;28;20016;-61
2021/05/24 02:59:25;;;;;;;1.55;0.35;;;;;;;;;;5064969;28;20032;-61
2021/05/24 03:01:51;;;;;;;1.90;0.40;;;;;;;;;;5067320;28;20024;-62
2021/05/24 03:04:23;;;;;;;0.85;0.30;;;;;;;;;;5066029;28;20016;-61
2021/05/24 03:06:49;;;;;;;1.15;0.60;;;;;;;;;;5065287;28;20141;-61
2021/05/24 03:09:14;;;;;;;0.55;0.40;;;;;;;;;;5061800;28;20174;-62
2021/05/24 03:11:40;;;;;;;1.17;0.40;;;;;;;;;;5066729;28;20109;-61
2021/05/24 03:14:05;;;;;;;0.70;0.38;;;;;;;;;;5072351;28;20477;-62
2021/05/24 03:16:31;;;;;;;1.10;0.60;;;;;;;;;;5101457;28;20537;-62
2021/05/24 03:18:56;;;;;;;1.10;0.43;;;;;;;;;;5070831;28;20286;-62
2021/05/24 03:21:21;;;;;;;1.73;0.40;;;;;;;;;;5059714;28;20103;-62
2021/05/24 03:23:47;;;;;;;1.02;0.30;;;;;;;;;;5069885;28;20055;-62
2021/05/24 03:26:12;;;;;;;1.60;0.40;;;;;;;;;;5071456;28;20120;-62
2021/05/24 03:28:39;;;;;;;0.50;0.22;;;;;;;;;;5067056;28;20028;-62
2021/05/24 03:31:04;;;;;;;1.10;0.35;;;;;;;;;;5069135;28;20035;-62
2021/05/24 03:33:30;;;;;;;0.93;0.40;;;;;;;;;;5066377;28;20095;-60
2021/05/24 03:35:55;;;;;;;1.75;0.50;;;;;;;;;;5069633;28;20044;-61
2021/05/24 03:38:20;;;;;;;1.23;0.43;;;;;;;;;;5064980;28;20055;-61
2021/05/24 03:40:46;;;;;;;1.65;0.57;;;;;;;;;;5066570;28;20024;-61
2021/05/24 03:43:11;;;;;;;2.13;0.38;;;;;;;;;;5061132;28;20039;-61
2021/05/24 03:45:38;;;;;;;0.88;0.30;;;;;;;;;;5062817;28;20159;-61
2021/05/24 03:48:04;;;;;;;1.77;0.40;;;;;;;;;;5063560;28;20059;-61
2021/05/24 03:50:29;;;;;;;1.45;0.40;;;;;;;;;;5068307;28;20034;-61
2021/05/24 03:52:54;;;;;;;1.27;0.40;;;;;;;;;;5063674;28;20353;-61
2021/05/24 03:55:20;;;;;;;0.80;0.30;;;;;;;;;;5067069;28;20023;-61
2021/05/24 03:57:47;;;;;;;2.28;0.47;;;;;;;;;;5070026;28;20016;-61
2021/05/24 04:00:12;;;;;;;1.40;0.30;;;;;;;;;;5071234;28;20467;-62
2021/05/24 04:02:38;;;;;;;2.05;0.40;;;;;;;;;;5068406;28;20036;-60
2021/05/24 04:05:11;;;;;;;0.77;0.25;;;;;;;;;;5067810;28;20016;-61
2021/05/24 04:07:36;;;;;;;0.80;0.40;;;;;;;;;;5067723;28;20415;-60
2021/05/24 04:10:02;;;;;;;1.05;0.50;;;;;;;;;;5068411;28;20016;-61
2021/05/24 04:12:28;;;;;;;1.08;0.40;;;;;;;;;;5102272;28;20026;-61
2021/05/24 04:14:53;;;;;;;2.22;0.38;;;;;;;;;;5069112;28;20527;-61
2021/05/24 04:17:21;;;;;;;1.55;0.35;;;;;;;;;;5065293;28;20557;-61
2021/05/24 04:19:47;;;;;;;0.63;0.30;;;;;;;;;;5070602;28;20029;-61
2021/05/24 04:22:12;;;;;;;1.02;0.40;;;;;;;;;;5067951;28;20532;-61
2021/05/24 04:24:37;;;;;;;1.48;0.22;;;;;;;;;;5068306;28;20032;-61
2021/05/24 04:27:02;;;;;;;1.10;0.28;;;;;;;;;;5067933;28;20016;-62
2021/05/24 04:29:28;;;;;;;0.77;0.20;;;;;;;;;;5069947;28;20547;-61
2021/05/24 04:31:53;;;;;;;0.52;0.20;;;;;;;;;;5071975;28;20096;-62
2021/05/24 04:34:18;;;;;;;0.90;0.20;;;;;;;;;;5068331;28;20020;-62
2021/05/24 04:36:43;;;;;;;0.90;0.30;;;;;;;;;;5063058;28;20048;-62
2021/05/24 04:39:08;;;;;;;0.47;0.22;;;;;;;;;;5073061;28;20074;-62
2021/05/24 04:41:34;;;;;;;0.93;0.28;;;;;;;;;;5072355;28;20521;-62
2021/05/24 04:44:11;;;;;;;1.05;0.20;;;;;;;;;;5070738;28;20075;-62
2021/05/24 04:46:37;;;;;;;1.55;0.20;;;;;;;;;;5067418;28;20087;-62
2021/05/24 04:49:02;;;;;;;1.25;0.20;;;;;;;;;;5070654;28;20468;-62
2021/05/24 04:51:27;;;;;;;1.20;0.30;;;;;;;;;;5068607;28;20016;-61
2021/05/24 04:53:53;;;;;;;1.27;0.22;;;;;;;;;;5070109;28;20017;-62
2021/05/24 04:56:18;;;;;;;0.63;0.17;;;;;;;;;;5069344;28;20368;-62
2021/05/24 04:58:43;;;;;;;4.15;0.20;;;;;;;;;;5063729;28;20032;-61
2021/05/24 05:01:08;;;;;;;0.77;0.13;;;;;;;;;;5069242;28;20379;-62
2021/05/24 05:03:34;;;;;;;1.27;0.40;;;;;;;;;;5068856;28;20122;-62
2021/05/24 05:06:00;;;;;;;0.63;0.10;;;;;;;;;;5066690;28;20467;-62
2021/05/24 05:08:25;;;;;;;1.15;0.20;;;;;;;;;;5065189;28;20369;-62
2021/05/24 05:10:50;;;;;;;0.30;0.10;;;;;;;;;;5068376;28;20368;-62
2021/05/24 05:13:15;;;;;;;1.38;0.10;;;;;;;;;;5067752;28;20065;-62
2021/05/24 05:15:41;;;;;;;2.10;0.25;;;;;;;;;;5068284;28;20024;-62
2021/05/24 05:18:06;;;;;;;1.17;0.20;;;;;;;;;;5063459;28;20045;-61
2021/05/24 05:20:31;;;;;;;0.17;0.00;;;;;;;;;;5069128;28;20025;-62
2021/05/24 05:22:56;;;;;;;0.63;0.10;;;;;;;;;;5069199;28;20039;-62
2021/05/24 05:25:21;;;;;;;0.50;0.30;;;;;;;;;;5068487;28;20017;-62
2021/05/24 05:27:48;;;;;;;0.20;0.10;;;;;;;;;;5064897;28;20115;-61
2021/05/24 05:30:13;;;;;;;1.35;0.10;;;;;;;;;;5070684;28;20052;-62
2021/05/24 05:32:38;;;;;;;0.80;0.10;;;;;;;;;;5072698;28;20376;-62
2021/05/24 05:35:04;;;;;;;0.35;0.10;;;;;;;;;;5069605;28;20021;-62
2021/05/24 05:37:29;;;;;;;0.55;0.10;;;;;;;;;;5069726;28;20036;-62
2021/05/24 05:39:56;;;;;;;0.73;0.20;;;;;;;;;;5072302;28;20376;-62
2021/05/24 05:42:22;;;;;;;0.10;0.10;;;;;;;;;;5070056;28;20031;-62
2021/05/24 05:44:48;;;;;;;0.65;0.10;;;;;;;;;;5071320;28;20029;-60
2021/05/24 05:47:13;;;;;;;1.90;0.10;;;;;;;;;;5068279;28;20016;-62
2021/05/24 05:49:38;;;;;;;0.85;0.10;;;;;;;;;;5071754;28;20024;-62
2021/05/24 05:52:05;;;;;;;0.80;0.10;;;;;;;;;;5072001;28;20066;-62
2021/05/24 05:54:30;;;;;;;0.68;0.10;;;;;;;;;;5070617;28;20019;-62
2021/05/24 05:56:55;;;;;;;0.50;0.10;;;;;;;;;;5067642;28;20020;-62
2021/05/24 05:59:21;;;;;;;0.55;0.10;;;;;;;;;;5071880;28;20028;-62
2021/05/24 06:01:46;;;;;;;0.20;0.10;;;;;;;;;;5069376;28;20021;-62
2021/05/24 06:04:12;;;;;;;1.35;0.10;;;;;;;;;;5076183;28;20426;-62
2021/05/24 06:06:37;;;;;;;0.38;0.10;;;;;;;;;;5069125;28;20059;-62
2021/05/24 06:09:03;;;;;;;0.47;0.10;;;;;;;;;;5070429;28;20100;-62
2021/05/24 06:11:28;;;;;;;0.50;0.10;;;;;;;;;;5075495;28;20059;-62
2021/05/24 06:13:53;;;;;;;0.73;0.10;;;;;;;;;;5071933;28;20032;-62
2021/05/24 06:16:18;;;;;;;0.98;0.20;;;;;;;;;;5054364;28;20021;-62
2021/05/24 06:18:44;;;;;;;0.50;0.10;;;;;;;;;;5074484;28;20471;-62
2021/05/24 06:21:09;;;;;;;0.35;0.20;;;;;;;;;;5073055;28;20028;-63
2021/05/24 06:23:34;;;;;;;1.98;0.10;;;;;;;;;;5071817;28;20017;-62
2021/05/24 06:25:59;;;;;;;0.10;0.05;;;;;;;;;;5071423;28;20020;-62
2021/05/24 06:28:25;;;;;;;0.28;0.10;;;;;;;;;;5068708;28;20108;-61
2021/05/24 06:30:50;;;;;;;0.63;0.10;;;;;;;;;;5071359;28;20145;-61
2021/05/24 06:33:15;;;;;;;1.05;0.10;;;;;;;;;;5071811;28;20510;-61
2021/05/24 06:35:41;;;;;;;0.30;0.13;;;;;;;;;;5071651;28;20081;-61
2021/05/24 06:38:06;;;;;;;0.88;0.10;;;;;;;;;;5066681;28;20037;-61
2021/05/24 06:40:31;;;;;;;1.92;0.32;;;;;;;;;;5071167;28;20012;-61
2021/05/24 06:42:57;;;;;;;0.20;0.10;;;;;;;;;;5071910;28;20009;-61
2021/05/24 06:45:22;;;;;;;0.20;0.10;;;;;;;;;;5071457;28;20016;-61
2021/05/24 06:47:47;;;;;;;0.80;0.10;;;;;;;;;;5067287;28;20036;-61
2021/05/24 06:50:13;;;;;;;0.50;0.10;;;;;;;;;;5071772;28;20020;-61
2021/05/24 06:52:38;;;;;;;0.68;0.13;;;;;;;;;;5071506;28;20520;-62
2021/05/24 06:55:04;;;;;;;1.15;0.10;;;;;;;;;;5071688;28;20095;-61
2021/05/24 06:57:29;;;;;;;0.20;0.10;;;;;;;;;;5066140;28;20484;-60
2021/05/24 06:59:55;;;;;;;2.65;0.10;;;;;;;;;;5071317;28;20024;-61
2021/05/24 07:02:20;;;;;;;1.63;0.20;;;;;;;;;;5070958;28;20499;-61
2021/05/24 07:04:45;;;;;;;1.05;0.10;;;;;;;;;;5074496;28;20023;-61
2021/05/24 07:07:11;;;;;;;0.30;0.10;;;;;;;;;;5071868;28;20017;-61
2021/05/24 07:09:36;;;;;;;0.75;0.10;;;;;;;;;;5071270;28;20499;-61
2021/05/24 07:12:01;;;;;;;0.82;0.10;;;;;;;;;;5070760;28;20456;-61
2021/05/24 07:14:27;;;;;;;0.38;0.10;;;;;;;;;;5071240;28;20088;-61
2021/05/24 07:16:54;;;;;;;0.82;0.20;;;;;;;;;;5067931;28;20255;-61
2021/05/24 07:19:19;;;;;;;0.50;0.10;;;;;;;;;;5071003;28;20031;-62
2021/05/24 07:21:44;;;;;;;0.77;0.17;;;;;;;;;;5071303;28;20259;-62
2021/05/24 07:24:09;;;;;;;0.70;0.10;;;;;;;;;;5071123;28;20036;-62
2021/05/24 07:26:35;;;;;;;1.90;0.40;;;;;;;;;;5078496;28;20029;-62
2021/05/24 07:29:00;;;;;;;1.20;0.20;;;;;;;;;;5071463;28;20028;-62
2021/05/24 07:31:25;;;;;;;0.95;0.13;;;;;;;;;;5078335;28;20550;-62
2021/05/24 07:33:50;;;;;;;0.65;0.10;;;;;;;;;;5074867;28;20410;-62
2021/05/24 07:36:16;;;;;;;1.20;0.20;;;;;;;;;;5075227;28;20023;-62
2021/05/24 07:38:41;;;;;;;0.47;0.20;;;;;;;;;;5071750;28;20037;-62
2021/05/24 07:41:06;;;;;;;1.63;0.20;;;;;;;;;;5073289;28;20024;-62
2021/05/24 07:43:32;;;;;;;0.40;0.10;;;;;;;;;;5073878;28;20028;-62
2021/05/24 07:45:57;;;;;;;0.35;0.10;;;;;;;;;;5074954;28;20024;-62
2021/05/24 07:48:22;;;;;;;1.38;0.10;;;;;;;;;;5072383;28;20066;-62
2021/05/24 07:50:47;;;;;;;0.73;0.10;;;;;;;;;;5074290;28;20078;-63
2021/05/24 07:53:13;;;;;;;0.30;0.10;;;;;;;;;;5075085;28;20032;-62
2021/05/24 07:55:38;;;;;;;1.00;0.20;;;;;;;;;;5079645;28;20024;-62
2021/05/24 07:58:03;;;;;;;0.43;0.10;;;;;;;;;;5072807;28;20023;-61
2021/05/24 08:00:28;;;;;;;0.30;0.10;;;;;;;;;;5078810;28;20103;-63
2021/05/24 08:02:54;;;;;;;0.20;0.10;;;;;;;;;;5076193;28;20103;-63
2021/05/24 08:05:19;;;;;;;3.78;0.20;;;;;;;;;;5075896;28;20023;-63
2021/05/24 08:07:45;;;;;;;0.73;0.15;;;;;;;;;;5070393;28;20023;-64
2021/05/24 08:10:11;;;;;;;0.80;0.15;;;;;;;;;;5072913;28;20414;-64
2021/05/24 08:12:39;;;;;;;0.60;0.10;;;;;;;;;;5076523;28;20408;-63
2021/05/24 08:15:06;;;;;;;2.38;0.10;;;;;;;;;;5073598;28;20039;-63
2021/05/24 08:17:31;;;;;;;0.73;0.20;;;;;;;;;;5070694;28;20021;-63
2021/05/24 08:19:56;;;;;;;1.33;0.20;;;;;;;;;;5074613;28;20146;-62
2021/05/24 08:22:22;;;;;;;0.75;0.10;;;;;;;;;;5077068;28;20016;-63
2021/05/24 08:24:47;;;;;;;2.58;0.20;;;;;;;;;;5074009;28;20043;-63
2021/05/24 08:27:12;;;;;;;1.02;0.10;;;;;;;;;;5071705;28;20017;-63
2021/05/24 08:29:37;;;;;;;1.27;0.20;;;;;;;;;;5074035;28;20028;-63
2021/05/24 08:32:03;;;;;;;0.75;0.20;;;;;;;;;;5076180;28;20025;-63
2021/05/24 08:34:28;;;;;;;0.40;0.10;;;;;;;;;;5074150;28;20464;-63
2021/05/24 08:36:53;;;;;;;0.20;0.10;;;;;;;;;;5065963;28;20045;-63
2021/05/24 08:39:18;;;;;;;0.75;0.10;;;;;;;;;;5106510;28;20501;-62
2021/05/24 08:41:45;;;;;;;0.73;0.10;;;;;;;;;;5073471;28;20547;-63
2021/05/24 08:44:11;;;;;;;0.13;0.08;;;;;;;;;;5078454;28;20025;-63
2021/05/24 08:46:38;;;;;;;0.60;0.10;;;;;;;;;;5070662;28;20450;-62
2021/05/24 08:49:04;;;;;;;0.50;0.15;;;;;;;;;;5074833;28;20016;-62
2021/05/24 08:51:29;;;;;;;1.10;0.10;;;;;;;;;;5081800;28;20009;-62
2021/05/24 08:53:54;;;;;;;1.20;0.20;;;;;;;;;;5073437;28;20027;-63
2021/05/24 08:56:20;;;;;;;0.28;0.10;;;;;;;;;;5072855;28;20091;-62
2021/05/24 08:58:45;;;;;;;0.90;0.10;;;;;;;;;;5070566;28;20055;-62
2021/05/24 09:01:11;;;;;;;0.73;0.08;;;;;;;;;;5063826;28;20029;-63
2021/05/24 09:03:36;;;;;;;0.73;0.10;;;;;;;;;;5072976;28;20024;-63
2021/05/24 09:06:07;;;;;;;0.88;0.10;;;;;;;;;;5072291;28;20083;-62
2021/05/24 09:08:35;;;;;;;0.93;0.47;;;;;;;;;;5069704;28;20032;-63
2021/05/24 09:11:00;;;;;;;1.00;0.10;;;;;;;;;;5066402;28;20352;-63
2021/05/24 09:13:27;;;;;;;0.40;0.15;;;;;;;;;;5074756;28;20103;-64
2021/05/24 09:15:53;;;;;;;0.50;0.10;;;;;;;;;;5093600;28;20094;-63
2021/05/24 09:18:19;;;;;;;0.30;0.10;;;;;;;;;;5081031;28;20467;-63
2021/05/24 09:20:45;;;;;;;1.05;0.20;;;;;;;;;;5073367;28;20443;-63
2021/05/24 09:23:12;;;;;;;1.10;0.10;;;;;;;;;;5065770;28;20100;-63
2021/05/24 09:25:46;;;;;;;0.30;0.00;;;;;;;;;;5065610;28;20488;-63
2021/05/24 09:28:38;;;;;;;0.30;0.10;;;;;;;;;;5070184;28;20095;-64
2021/05/24 09:31:12;;;;;;;0.13;0.08;;;;;;;;;;5056813;28;20024;-63
2021/05/24 09:33:38;;;;;;;0.30;0.08;;;;;;;;;;5055071;28;20110;-63
2021/05/24 09:36:04;;;;;;;9.23;0.63;;;;;;;;;;5059984;28;20025;-63
2021/05/24 09:38:34;;;;;;;0.30;0.10;;;;;;;;;;5060929;28;20086;-63
2021/05/24 09:40:59;;;;;;;1.23;0.10;;;;;;;;;;5071873;28;20029;-64
2021/05/24 09:43:48;;;;;;;1.33;0.13;;;;;;;;;;5104827;27;20035;-65
2021/05/24 09:46:13;;;;;;;0.32;0.00;;;;;;;;;;5072524;28;20040;-64
2021/05/24 09:48:39;;;;;;;0.28;0.10;;;;;;;;;;5065788;28;20070;-65
2021/05/24 09:51:06;;;;;;;0.65;0.10;;;;;;;;;;5072413;28;20044;-63
2021/05/24 09:53:31;;;;;;;0.82;0.20;;;;;;;;;;5069154;28;20029;-65
2021/05/24 09:56:07;;;;;;;1.95;0.10;;;;;;;;;;5064111;28;20365;-65
2021/05/24 09:58:33;;;;;;;1.50;0.10;;;;;;;;;;5067029;28;20021;-63
2021/05/24 10:01:15;;;;;;;1.75;0.10;;;;;;;;;;5061389;28;20115;-64
2021/05/24 10:03:42;;;;;;;0.30;0.10;;;;;;;;;;5071675;28;20464;-64
2021/05/24 10:06:07;;;;;;;1.17;0.10;;;;;;;;;;5070590;28;20089;-65
2021/05/24 10:08:33;;;;;;;0.17;0.10;;;;;;;;;;5068368;28;20103;-64
2021/05/24 10:10:59;;;;;;;0.60;0.00;;;;;;;;;;5071846;28;20043;-64
2021/05/24 10:13:25;;;;;;;0.30;0.20;;;;;;;;;;5074092;28;20210;-64
2021/05/24 10:15:54;;;;;;;0.50;0.10;;;;;;;;;;5079958;28;20024;-64
2021/05/24 10:18:20;;;;;;;0.63;0.10;;;;;;;;;;5068121;28;20008;-65
2021/05/24 10:20:45;;;;;;;0.32;0.10;;;;;;;;;;5071136;28;20020;-65
2021/05/24 10:23:11;;;;;;;0.73;0.10;;;;;;;;;;5069433;28;20483;-63
2021/05/24 10:25:36;;;;;;;0.68;0.20;;;;;;;;;;5071607;28;20035;-63
2021/05/24 10:28:02;;;;;;;1.85;0.10;;;;;;;;;;5069517;28;20011;-64
2021/05/24 10:30:27;;;;;;;0.40;0.20;;;;;;;;;;5071910;28;20066;-64
2021/05/24 10:32:56;;;;;;;0.10;0.00;;;;;;;;;;5071652;28;20480;-64
2021/05/24 10:35:38;;;;;;;0.30;0.10;;;;;;;;;;5064575;28;20464;-64
2021/05/24 10:38:28;;;;;;;0.20;0.10;;;;;;;;;;5064062;28;20041;-64
2021/05/24 10:41:05;;;;;;;0.25;0.10;;;;;;;;;;5064573;28;20033;-64
2021/05/24 10:43:45;;;;;;;0.80;0.10;;;;;;;;;;5069588;28;20052;-64
2021/05/24 10:46:25;;;;;;;0.85;0.10;;;;;;;;;;5072315;28;20017;-65
2021/05/24 10:49:06;;;;;;;7.50;0.35;;;;;;;;;;5059486;28;20036;-64
2021/05/24 10:51:46;;;;;;;0.80;0.10;;;;;;;;;;5072051;28;20383;-64
2021/05/24 10:54:21;;;;;;;0.40;0.10;;;;;;;;;;5076320;28;20016;-64
2021/05/24 10:56:58;;;;;;;0.38;0.10;;;;;;;;;;5079907;28;20021;-64
2021/05/24 10:59:39;;;;;;;0.17;0.10;;;;;;;;;;5051634;28;20021;-64
2021/05/24 11:02:08;;;;;;;1.38;0.10;;;;;;;;;;5061360;28;20426;-64
2021/05/24 11:04:46;;;;;;;0.32;0.10;;;;;;;;;;5102948;28;20391;-64
2021/05/24 11:07:31;;;;;;;0.10;0.10;;;;;;;;;;5066862;28;20025;-64
2021/05/24 11:10:17;;;;;;;0.75;0.10;;;;;;;;;;5070024;28;20503;-65
2021/05/24 11:12:43;;;;;;;0.50;0.10;;;;;;;;;;5081413;28;20032;-64
2021/05/24 11:15:09;;;;;;;0.37;0.03;;;;;;;;;;5085000;28;20398;-64
2021/05/24 11:17:53;;;;;;;1.30;0.10;;;;;;;;;;5068962;28;20281;-65
2021/05/24 11:20:38;;;;;;;0.52;0.10;;;;;;;;;;5070843;28;20380;-64
2021/05/24 11:23:33;;;;;;;1.13;0.13;;;;;;;;;;5064136;28;20042;-65
2021/05/24 11:26:17;;;;;;;0.97;0.10;;;;;;;;;;5061167;28;20024;-65
2021/05/24 11:28:44;;;;;;;0.45;0.10;;;;;;;;;;5067585;28;20275;-65
2021/05/24 11:31:16;;;;;;;1.00;0.10;;;;;;;;;;5100962;28;20111;-65
2021/05/24 11:33:42;;;;;;;0.70;0.20;;;;;;;;;;5070513;28;20020;-65
2021/05/24 11:36:09;;;;;;;0.80;0.20;;;;;;;;;;5071422;28;20021;-65
2021/05/24 11:38:34;;;;;;;0.55;0.15;;;;;;;;;;5071514;28;20124;-65
2021/05/24 11:41:10;;;;;;;0.65;0.10;;;;;;;;;;5071234;28;20115;-65
2021/05/24 11:43:38;;;;;;;0.40;0.10;;;;;;;;;;5070201;28;20020;-66
2021/05/24 11:46:05;;;;;;;1.67;0.20;;;;;;;;;;5102770;28;20040;-65
2021/05/24 11:48:41;;;;;;;0.80;0.10;;;;;;;;;;5103157;27;20099;-65
2021/05/24 11:51:07;;;;;;;0.20;0.10;;;;;;;;;;5072648;28;20020;-66
2021/05/24 11:53:33;;;;;;;0.50;0.10;;;;;;;;;;5091607;28;20039;-66
2021/05/24 11:56:09;;;;;;;0.20;0.10;;;;;;;;;;5073100;28;20460;-65
2021/05/24 11:58:52;;;;;;;1.15;0.20;;;;;;;;;;5069804;28;20418;-66
2021/05/24 12:01:17;;;;;;;0.68;0.13;;;;;;;;;;5076397;28;20497;-65
2021/05/24 12:03:46;;;;;;;2.00;0.10;;;;;;;;;;5069704;28;20025;-65
2021/05/24 12:06:12;;;;;;;0.68;0.20;;;;;;;;;;5061867;28;20274;-65
2021/05/24 12:08:40;;;;;;;0.40;0.20;;;;;;;;;;5076581;28;20028;-65
2021/05/24 12:11:05;;;;;;;0.50;0.17;;;;;;;;;;5078013;28;20036;-65
2021/05/24 12:13:50;;;;;;;0.30;0.10;;;;;;;;;;5068851;28;20052;-64
2021/05/24 12:16:16;;;;;;;0.20;0.10;;;;;;;;;;5085771;28;20029;-63
2021/05/24 12:18:57;;;;;;;0.43;0.10;;;;;;;;;;5075763;28;20120;-64
2021/05/24 12:21:32;;;;;;;0.28;0.20;;;;;;;;;;5068849;28;20350;-64
2021/05/24 12:23:58;;;;;;;0.95;0.13;;;;;;;;;;5106255;28;20029;-65
2021/05/24 12:26:23;;;;;;;0.20;0.10;;;;;;;;;;5071221;28;20040;-65
2021/05/24 12:28:48;;;;;;;0.40;0.20;;;;;;;;;;5070587;28;20066;-64
2021/05/24 12:31:14;;;;;;;0.57;0.10;;;;;;;;;;5074129;28;20013;-65
2021/05/24 12:33:46;;;;;;;0.95;0.10;;;;;;;;;;5074735;28;20029;-66
2021/05/24 12:36:11;;;;;;;0.77;0.20;;;;;;;;;;5073855;28;20030;-65
2021/05/24 12:38:45;;;;;;;0.95;0.10;;;;;;;;;;5068936;28;20376;-64
2021/05/24 12:41:10;;;;;;;0.20;0.10;;;;;;;;;;5074330;28;20112;-65
2021/05/24 12:43:46;;;;;;;0.90;0.10;;;;;;;;;;5072649;28;20680;-64
2021/05/24 12:46:12;;;;;;;0.70;0.10;;;;;;;;;;5073755;28;20098;-65
2021/05/24 12:48:39;;;;;;;1.20;0.10;;;;;;;;;;5070044;28;20099;-66
2021/05/24 12:51:12;;;;;;;0.88;0.30;;;;;;;;;;5067850;28;20113;-63
2021/05/24 12:53:37;;;;;;;0.28;0.10;;;;;;;;;;5072004;28;20145;-65
2021/05/24 12:56:07;;;;;;;0.28;0.10;;;;;;;;;;5068578;28;20021;-64
2021/05/24 12:58:39;;;;;;;2.05;0.10;;;;;;;;;;5068146;28;20044;-63
2021/05/24 13:01:05;;;;;;;0.52;0.10;;;;;;;;;;5106445;28;20012;-64
2021/05/24 13:04:02;;;;;;;0.10;0.00;;;;;;;;;;5072601;28;20016;-64
2021/05/24 13:06:27;;;;;;;1.05;0.10;;;;;;;;;;5079717;28;20020;-64
2021/05/24 13:09:01;;;;;;;0.73;0.20;;;;;;;;;;5095941;27;20062;-64
2021/05/24 13:11:28;;;;;;;0.73;0.15;;;;;;;;;;5066781;28;21403;-64
2021/05/24 13:14:02;;;;;;;0.47;0.10;;;;;;;;;;5063610;28;20013;-64
2021/05/24 13:16:32;;;;;;;1.58;0.10;;;;;;;;;;5072415;28;20016;-64
2021/05/24 13:20:03;;;;;;;2.58;0.30;;;;;;;;;;5070816;28;20020;-64
2021/05/24 13:25:33;;;;;;;1.38;0.22;;;;;;;;;;5072918;28;20030;-64
2021/05/24 13:30:31;;;;;;;0.25;0.13;;;;;;;;;;5072334;28;20023;-64
2021/05/24 13:32:57;;;;;;;1.13;0.20;;;;;;;;;;5072570;28;20086;-64
2021/05/24 13:35:23;;;;;;;0.90;0.20;;;;;;;;;;5073247;28;20451;-64
2021/05/24 13:37:48;;;;;;;0.30;0.10;;;;;;;;;;5062115;28;20048;-64
2021/05/24 13:40:17;;;;;;;0.93;0.20;;;;;;;;;;5065679;28;20032;-65
2021/05/24 13:42:43;;;;;;;1.38;0.20;;;;;;;;;;5071541;28;20025;-64
2021/05/24 13:45:09;;;;;;;1.45;0.20;;;;;;;;;;5071987;28;20070;-66
2021/05/24 13:47:34;;;;;;;0.47;0.15;;;;;;;;;;5067820;28;20065;-64
2021/05/24 13:49:59;;;;;;;0.55;0.17;;;;;;;;;;5069394;28;20021;-64
2021/05/24 13:52:25;;;;;;;0.88;0.10;;;;;;;;;;5071753;28;20017;-64
2021/05/24 13:54:50;;;;;;;1.42;0.20;;;;;;;;;;5072651;28;20433;-65
2021/05/24 13:57:15;;;;;;;0.80;0.20;;;;;;;;;;5070286;28;20016;-65
2021/05/24 13:59:40;;;;;;;1.85;0.20;;;;;;;;;;5062303;28;20028;-65
2021/05/24 14:02:06;;;;;;;0.65;0.20;;;;;;;;;;5070904;28;20016;-66
2021/05/24 14:04:31;;;;;;;0.52;0.10;;;;;;;;;;5072194;28;20024;-66
2021/05/24 14:06:57;;;;;;;1.20;0.20;;;;;;;;;;5068945;28;20520;-67
2021/05/24 14:09:22;;;;;;;0.70;0.10;;;;;;;;;;5071200;28;20024;-65
2021/05/24 14:11:47;;;;;;;0.50;0.20;;;;;;;;;;5067401;28;20032;-65
2021/05/24 14:14:13;;;;;;;1.83;0.20;;;;;;;;;;5072065;28;20259;-64
2021/05/24 14:16:38;;;;;;;1.08;0.30;;;;;;;;;;5066556;28;20059;-65
2021/05/24 14:19:03;;;;;;;1.23;0.10;;;;;;;;;;5071931;28;20024;-63
2021/05/24 14:21:28;;;;;;;0.73;0.15;;;;;;;;;;5071184;28;20013;-63
2021/05/24 14:23:55;;;;;;;0.50;0.13;;;;;;;;;;5070737;28;20020;-65
2021/05/24 14:26:20;;;;;;;1.23;0.20;;;;;;;;;;5070929;28;20494;-65
2021/05/24 14:28:46;;;;;;;0.47;0.13;;;;;;;;;;5067685;28;20020;-64
2021/05/24 14:31:12;;;;;;;1.05;0.22;;;;;;;;;;5071715;28;20019;-65
2021/05/24 14:33:38;;;;;;;1.38;0.40;;;;;;;;;;5070180;28;20050;-65
2021/05/24 14:36:04;;;;;;;0.50;0.28;;;;;;;;;;5065386;28;20020;-64
2021/05/24 14:38:29;;;;;;;0.63;0.10;;;;;;;;;;5068015;28;20041;-64
2021/05/24 14:40:55;;;;;;;1.08;0.20;;;;;;;;;;5070709;28;20044;-65
2021/05/24 14:43:21;;;;;;;0.75;0.20;;;;;;;;;;5070181;28;20040;-65
2021/05/24 14:45:47;;;;;;;0.50;0.20;;;;;;;;;;5072073;28;20071;-65
2021/05/24 14:48:12;;;;;;;0.55;0.20;;;;;;;;;;5071834;28;20459;-66
2021/05/24 14:50:45;;;;;;;1.33;0.30;;;;;;;;;;5069486;28;20036;-64